Wetterstation Vordersexau
Wetterdaten: Woche 23.07.12 - 29.07.12 (KW30)
Datum Zeit Temp. A. Feuchte A. Luftdruck Regen Wind Richtung Taupunkt Windchill Windben
23.07.2012 00:00 10,1 C 77 % 1024,1 hPa 0,0 l/m 0,0 km/h SO 6,3 C 10,1 C 0,0 km/h
23.07.2012 01:00 9,8 C 81 % 1024,0 hPa 0,0 l/m 2,6 km/h O 6,7 C 9,8 C 1,4 km/h
23.07.2012 02:00 8,9 C 82 % 1023,6 hPa 0,0 l/m 0,0 km/h SO 6,0 C 8,9 C 0,0 km/h
23.07.2012 03:00 8,8 C 83 % 1023,4 hPa 0,0 l/m 0,0 km/h NO 6,1 C 8,8 C 0,0 km/h
23.07.2012 04:00 8,9 C 83 % 1023,6 hPa 0,0 l/m 0,0 km/h SO 6,2 C 8,9 C 0,0 km/h
23.07.2012 05:00 8,6 C 84 % 1023,4 hPa 0,0 l/m 24,0 km/h S-SO 6,1 C 0,2 C 13,3 km/h
23.07.2012 06:00 7,9 C 83 % 1023,3 hPa 0,0 l/m 0,0 km/h W 5,2 C 7,9 C 0,0 km/h
23.07.2012 07:00 9,4 C 84 % 1023,2 hPa 0,0 l/m 0,0 km/h N-NO 6,8 C 9,4 C 0,0 km/h
23.07.2012 08:00 21,2 C 56 % 1023,1 hPa 0,0 l/m 0,0 km/h N-NO 12,1 C 21,2 C 0,0 km/h
23.07.2012 09:00 24,3 C 49 % 1022,2 hPa 0,0 l/m 0,0 km/h N 12,9 C 24,3 C 0,0 km/h
23.07.2012 10:00 26,1 C 38 % 1021,6 hPa 0,0 l/m 6,5 km/h NO 10,7 C 26,1 C 3,6 km/h
23.07.2012 11:00 26,3 C 37 % 1021,3 hPa 0,0 l/m 8,4 km/h O-NO 10,4 C 25,9 C 4,7 km/h
23.07.2012 12:00 25,6 C 41 % 1020,9 hPa 0,0 l/m 0,0 km/h NO 11,4 C 25,6 C 0,0 km/h
23.07.2012 13:00 26,5 C 39 % 1020,0 hPa 0,0 l/m 1,3 km/h O-SO 11,4 C 26,5 C 0,7 km/h
23.07.2012 14:00 27,4 C 37 % 1019,1 hPa 0,0 l/m 1,9 km/h O-SO 11,4 C 27,4 C 1,1 km/h
23.07.2012 15:00 29,8 C 33 % 1018,6 hPa 0,0 l/m 7,1 km/h O 11,8 C 29,7 C 4,0 km/h
23.07.2012 16:00 32,5 C 30 % 1018,0 hPa 0,0 l/m 0,0 km/h N-NO 12,7 C 32,5 C 0,0 km/h
23.07.2012 17:00 33,9 C 27 % 1017,4 hPa 0,0 l/m 1,9 km/h O-NO 12,2 C 33,9 C 1,1 km/h
23.07.2012 18:00 32,9 C 28 % 1016,9 hPa 0,0 l/m 0,0 km/h N-NO 11,9 C 32,9 C 0,0 km/h
23.07.2012 19:00 29,9 C 32 % 1017,0 hPa 0,0 l/m 3,9 km/h N-NO 11,4 C 29,9 C 2,2 km/h
23.07.2012 20:00 23,1 C 44 % 1017,0 hPa 0,0 l/m 0,0 km/h O-NO 10,2 C 23,1 C 0,0 km/h
23.07.2012 21:00 20,6 C 48 % 1017,2 hPa 0,0 l/m 0,0 km/h N-NO 9,2 C 20,6 C 0,0 km/h
23.07.2012 22:00 17,2 C 62 % 1017,5 hPa 0,0 l/m 1,9 km/h S-SO 9,9 C 17,2 C 1,1 km/h
23.07.2012 23:00 14,4 C 71 % 1017,6 hPa 0,0 l/m 0,0 km/h N-NO 9,2 C 14,4 C 0,0 km/h
24.07.2012 00:00 13,9 C 76 % 1017,2 hPa 0,0 l/m 0,0 km/h N-NO 9,7 C 13,9 C 0,0 km/h
24.07.2012 01:00 12,9 C 78 % 1016,8 hPa 0,0 l/m 0,0 km/h N-NO 9,2 C 12,9 C 0,0 km/h
24.07.2012 02:00 11,8 C 81 % 1016,5 hPa 0,0 l/m 0,0 km/h O-NO 8,6 C 11,8 C 0,0 km/h
24.07.2012 03:00 10,9 C 83 % 1016,5 hPa 0,0 l/m 0,0 km/h O-NO 8,1 C 10,9 C 0,0 km/h
24.07.2012 04:00 11,0 C 83 % 1016,2 hPa 0,0 l/m 0,0 km/h O-SO 8,2 C 11,0 C 0,0 km/h
24.07.2012 05:00 10,9 C 83 % 1016,0 hPa 0,0 l/m 0,0 km/h SO 8,1 C 10,9 C 0,0 km/h
24.07.2012 06:00 11,6 C 83 % 1015,9 hPa 0,0 l/m 0,0 km/h N-NO 8,8 C 11,6 C 0,0 km/h
24.07.2012 07:00 12,6 C 84 % 1016,0 hPa 0,0 l/m 0,0 km/h N-NO 10,0 C 12,6 C 0,0 km/h
24.07.2012 08:00 21,6 C 65 % 1016,0 hPa 0,0 l/m 0,0 km/h W 14,7 C 21,6 C 0,0 km/h
24.07.2012 09:00 25,5 C 52 % 1015,8 hPa 0,0 l/m 0,0 km/h W-SW 14,9 C 25,5 C 0,0 km/h
24.07.2012 10:00 27,0 C 49 % 1015,6 hPa 0,0 l/m 0,0 km/h W-NW 15,4 C 27,0 C 0,0 km/h
24.07.2012 11:00 28,3 C 42 % 1015,3 hPa 0,0 l/m 13,6 km/h S 14,1 C 27,4 C 7,6 km/h
24.07.2012 12:00 27,3 C 47 % 1015,1 hPa 0,0 l/m 7,1 km/h NW 15,0 C 27,2 C 4,0 km/h
24.07.2012 13:00 28,9 C 46 % 1014,7 hPa 0,0 l/m 8,4 km/h N-NO 16,1 C 28,6 C 4,7 km/h
24.07.2012 14:00 28,9 C 46 % 1013,9 hPa 0,0 l/m 9,1 km/h W-SW 16,1 C 28,6 C 5,0 km/h
24.07.2012 15:00 31,6 C 44 % 1013,4 hPa 0,0 l/m 9,1 km/h NW 17,8 C 31,5 C 5,0 km/h
24.07.2012 16:00 32,9 C 40 % 1013,3 hPa 0,0 l/m 25,3 km/h NW 17,5 C 32,9 C 14,0 km/h
24.07.2012 17:00 35,4 C 35 % 1013,1 hPa 0,0 l/m 3,2 km/h W-NW 17,6 C 35,4 C 1,8 km/h
24.07.2012 18:00 35,6 C 35 % 1012,7 hPa 0,0 l/m 0,0 km/h W-NW 17,7 C 35,6 C 0,0 km/h
24.07.2012 19:00 31,9 C 41 % 1012,3 hPa 0,0 l/m 1,9 km/h N-NW 17,0 C 31,9 C 1,1 km/h
24.07.2012 20:00 25,4 C 56 % 1012,5 hPa 0,0 l/m 0,0 km/h N-NW 16,0 C 25,4 C 0,0 km/h
24.07.2012 21:00 20,4 C 71 % 1012,9 hPa 0,0 l/m 0,0 km/h NO 15,0 C 20,4 C 0,0 km/h
24.07.2012 22:00 19,3 C 78 % 1013,1 hPa 0,0 l/m 0,0 km/h O-NO 15,4 C 19,3 C 0,0 km/h
24.07.2012 23:00 17,8 C 81 % 1013,2 hPa 0,0 l/m 0,0 km/h O 14,5 C 17,8 C 0,0 km/h
25.07.2012 00:00 16,6 C 82 % 1013,2 hPa 0,0 l/m 0,0 km/h O 13,5 C 16,6 C 0,0 km/h
25.07.2012 01:00 16,1 C 83 % 1013,2 hPa 0,0 l/m 0,0 km/h O-NO 13,2 C 16,1 C 0,0 km/h
25.07.2012 02:00 15,4 C 83 % 1012,8 hPa 0,0 l/m 0,0 km/h SO 12,5 C 15,4 C 0,0 km/h
25.07.2012 03:00 15,8 C 81 % 1012,8 hPa 0,0 l/m 0,0 km/h O-NO 12,5 C 15,8 C 0,0 km/h
25.07.2012 04:00 15,3 C 81 % 1012,8 hPa 0,0 l/m 0,0 km/h O-SO 12,1 C 15,3 C 0,0 km/h
25.07.2012 05:00 14,4 C 81 % 1012,9 hPa 0,0 l/m 0,0 km/h SO 11,2 C 14,4 C 0,0 km/h
25.07.2012 06:00 14,4 C 81 % 1013,1 hPa 0,0 l/m 0,0 km/h NO 11,2 C 14,4 C 0,0 km/h
25.07.2012 07:00 15,8 C 77 % 1013,6 hPa 0,0 l/m 0,0 km/h O-NO 11,8 C 15,8 C 0,0 km/h
25.07.2012 08:00 23,8 C 78 % 1013,7 hPa 0,0 l/m 0,0 km/h SO 19,7 C 23,8 C 0,0 km/h
25.07.2012 09:00 29,0 C 58 % 1013,5 hPa 0,0 l/m 0,0 km/h W 19,9 C 29,0 C 0,0 km/h
25.07.2012 10:00 30,6 C 52 % 1013,6 hPa 0,0 l/m 8,4 km/h W-NW 19,6 C 30,5 C 4,7 km/h
25.07.2012 11:00 32,1 C 50 % 1013,5 hPa 0,0 l/m 5,2 km/h W 20,3 C 32,1 C 2,9 km/h
25.07.2012 12:00 30,8 C 48 % 1013,4 hPa 0,0 l/m 0,0 km/h W 18,5 C 30,8 C 0,0 km/h
25.07.2012 13:00 31,8 C 46 % 1013,1 hPa 0,0 l/m 0,0 km/h W-NW 18,7 C 31,8 C 0,0 km/h
25.07.2012 14:00 31,6 C 43 % 1012,8 hPa 0,0 l/m 11,0 km/h W 17,5 C 31,4 C 6,1 km/h
25.07.2012 15:00 35,2 C 32 % 1012,5 hPa 0,0 l/m 0,0 km/h N-NO 16,0 C 35,2 C 0,0 km/h
25.07.2012 16:00 38,5 C 25 % 1012,5 hPa 0,0 l/m 7,8 km/h N-NO 14,9 C 38,5 C 4,3 km/h
25.07.2012 17:00 39,7 C 25 % 1012,5 hPa 0,0 l/m 15,6 km/h N 15,9 C 39,7 C 8,6 km/h
25.07.2012 18:00 40,9 C 24 % 1012,3 hPa 0,0 l/m 0,0 km/h O 16,3 C 40,9 C 0,0 km/h
25.07.2012 19:00 37,1 C 29 % 1012,2 hPa 0,0 l/m 0,0 km/h O-NO 16,1 C 37,1 C 0,0 km/h
25.07.2012 20:00 27,3 C 49 % 1012,8 hPa 0,0 l/m 0,0 km/h SO 15,6 C 27,3 C 0,0 km/h
25.07.2012 21:00 22,6 C 61 % 1013,2 hPa 0,0 l/m 5,2 km/h SO 14,7 C 22,6 C 2,9 km/h
25.07.2012 22:00 20,1 C 69 % 1013,6 hPa 0,0 l/m 0,0 km/h SO 14,2 C 20,1 C 0,0 km/h
25.07.2012 23:00 19,3 C 72 % 1013,8 hPa 0,0 l/m 0,0 km/h S-SO 14,1 C 19,3 C 0,0 km/h
26.07.2012 00:00 18,4 C 74 % 1014,0 hPa 0,0 l/m 0,0 km/h SO 13,7 C 18,4 C 0,0 km/h
26.07.2012 01:00 17,8 C 76 % 1014,1 hPa 0,0 l/m 3,2 km/h SO 13,5 C 17,8 C 1,8 km/h
26.07.2012 02:00 17,4 C 77 % 1014,0 hPa 0,0 l/m 0,6 km/h SO 13,3 C 17,4 C 0,4 km/h
26.07.2012 03:00 16,4 C 79 % 1014,1 hPa 0,0 l/m 3,2 km/h SO 12,7 C 16,4 C 1,8 km/h
26.07.2012 04:00 16,2 C 80 % 1014,4 hPa 0,0 l/m 0,0 km/h O-NO 12,7 C 16,2 C 0,0 km/h
26.07.2012 05:00 15,5 C 81 % 1014,3 hPa 0,0 l/m 0,0 km/h SO 12,3 C 15,5 C 0,0 km/h
26.07.2012 06:00 15,5 C 82 % 1014,4 hPa 0,0 l/m 0,0 km/h S-SO 12,4 C 15,5 C 0,0 km/h
26.07.2012 07:00 16,9 C 82 % 1014,8 hPa 0,0 l/m 3,2 km/h SO 13,8 C 16,9 C 1,8 km/h
26.07.2012 08:00 25,4 C 64 % 1015,2 hPa 0,0 l/m 5,2 km/h NO 18,1 C 25,4 C 2,9 km/h
26.07.2012 09:00 31,0 C 48 % 1015,0 hPa 0,0 l/m 0,0 km/h W 18,7 C 31,0 C 0,0 km/h
26.07.2012 10:00 32,8 C 45 % 1015,0 hPa 0,0 l/m 0,0 km/h W-NW 19,3 C 32,8 C 0,0 km/h
26.07.2012 11:00 33,5 C 41 % 1014,9 hPa 0,0 l/m 0,0 km/h W-NW 18,4 C 33,5 C 0,0 km/h
26.07.2012 12:00 32,4 C 44 % 1014,8 hPa 0,0 l/m 0,0 km/h W-SW 18,5 C 32,4 C 0,0 km/h
26.07.2012 13:00 33,8 C 43 % 1014,4 hPa 0,0 l/m 2,6 km/h W-SW 19,4 C 33,8 C 1,4 km/h
26.07.2012 14:00 33,9 C 41 % 1014,0 hPa 0,0 l/m 6,5 km/h NW 18,8 C 33,9 C 3,6 km/h
26.07.2012 15:00 36,1 C 34 % 1013,8 hPa 0,0 l/m 0,0 km/h N-NW 17,7 C 36,1 C 0,0 km/h
26.07.2012 16:00 38,7 C 31 % 1013,6 hPa 0,0 l/m 10,4 km/h W-SW 18,5 C 38,7 C 5,8 km/h
26.07.2012 17:00 39,8 C 31 % 1013,2 hPa 0,0 l/m 0,0 km/h N-NO 19,4 C 39,8 C 0,0 km/h
26.07.2012 18:00 40,8 C 28 % 1013,1 hPa 0,0 l/m 6,5 km/h N-NO 18,6 C 40,8 C 3,6 km/h
26.07.2012 19:00 36,4 C 31 % 1012,8 hPa 0,0 l/m 7,8 km/h NO 16,5 C 36,4 C 4,3 km/h
26.07.2012 20:00 28,8 C 49 % 1012,9 hPa 0,0 l/m 0,0 km/h SO 17,0 C 28,8 C 0,0 km/h
26.07.2012 21:00 23,3 C 64 % 1013,1 hPa 0,0 l/m 0,0 km/h SO 16,1 C 23,3 C 0,0 km/h
26.07.2012 22:00 21,9 C 70 % 1013,2 hPa 0,0 l/m 0,0 km/h NO 16,2 C 21,9 C 0,0 km/h
26.07.2012 23:00 20,7 C 74 % 1013,3 hPa 0,0 l/m 0,0 km/h SO 15,9 C 20,7 C 0,0 km/h
27.07.2012 00:00 20,8 C 74 % 1013,3 hPa 0,0 l/m 7,1 km/h O-NO 16,0 C 20,5 C 4,0 km/h
27.07.2012 01:00 19,3 C 77 % 1013,1 hPa 0,0 l/m 0,0 km/h N-NO 15,2 C 19,3 C 0,0 km/h
27.07.2012 02:00 18,8 C 79 % 1012,9 hPa 0,0 l/m 0,0 km/h O-NO 15,1 C 18,8 C 0,0 km/h
27.07.2012 03:00 17,0 C 82 % 1012,4 hPa 0,0 l/m 0,0 km/h NO 13,9 C 17,0 C 0,0 km/h
27.07.2012 04:00 16,7 C 82 % 1012,6 hPa 0,0 l/m 0,0 km/h NO 13,6 C 16,7 C 0,0 km/h
27.07.2012 05:00 16,8 C 82 % 1012,8 hPa 0,0 l/m 0,0 km/h O-SO 13,7 C 16,8 C 0,0 km/h
27.07.2012 06:00 15,9 C 83 % 1012,8 hPa 0,0 l/m 0,0 km/h SO 13,0 C 15,9 C 0,0 km/h
27.07.2012 07:00 17,5 C 82 % 1012,6 hPa 0,0 l/m 0,0 km/h NO 14,4 C 17,5 C 0,0 km/h
27.07.2012 08:00 25,8 C 65 % 1012,3 hPa 0,0 l/m 0,0 km/h N-NO 18,7 C 25,8 C 0,0 km/h
27.07.2012 09:00 31,9 C 47 % 1012,4 hPa 0,0 l/m 0,0 km/h W 19,2 C 31,9 C 0,0 km/h
27.07.2012 10:00 31,5 C 48 % 1012,4 hPa 0,0 l/m 0,0 km/h SW 19,1 C 31,5 C 0,0 km/h
27.07.2012 11:00 35,2 C 41 % 1011,8 hPa 0,0 l/m 0,0 km/h W-NW 19,9 C 35,2 C 0,0 km/h
27.07.2012 12:00 34,3 C 42 % 1011,2 hPa 0,0 l/m 0,0 km/h W-SW 19,5 C 34,3 C 0,0 km/h
27.07.2012 13:00 35,4 C 41 % 1010,5 hPa 0,0 l/m 5,8 km/h W-SW 20,1 C 35,4 C 3,2 km/h
27.07.2012 14:00 35,6 C 42 % 1009,8 hPa 0,0 l/m 5,8 km/h W 20,7 C 35,6 C 3,2 km/h
27.07.2012 15:00 38,2 C 37 % 1009,3 hPa 0,0 l/m 11,0 km/h W 20,9 C 38,2 C 6,1 km/h
27.07.2012 16:00 35,9 C 40 % 1009,0 hPa 0,0 l/m 1,3 km/h N 20,1 C 35,9 C 0,7 km/h
27.07.2012 17:00 43,6 C 27 % 1008,3 hPa 0,0 l/m 4,5 km/h N-NO 20,4 C 43,6 C 2,5 km/h
27.07.2012 18:00 41,4 C 28 % 1007,4 hPa 0,0 l/m 0,0 km/h O 19,1 C 41,4 C 0,0 km/h
27.07.2012 19:00 38,2 C 41 % 1006,8 hPa 0,0 l/m 0,0 km/h N-NO 22,6 C 38,2 C 0,0 km/h
27.07.2012 20:00 29,5 C 56 % 1007,1 hPa 0,0 l/m 0,0 km/h O-SO 19,8 C 29,5 C 0,0 km/h
27.07.2012 21:00 25,3 C 68 % 1007,0 hPa 0,0 l/m 0,0 km/h O-NO 19,0 C 25,3 C 0,0 km/h
27.07.2012 22:00 23,6 C 74 % 1007,9 hPa 0,0 l/m 0,0 km/h SO 18,7 C 23,6 C 0,0 km/h
27.07.2012 23:00 24,1 C 69 % 1007,8 hPa 0,0 l/m 18,8 km/h NO 18,0 C 21,7 C 10,4 km/h
28.07.2012 00:00 22,9 C 72 % 1008,2 hPa 0,0 l/m 0,0 km/h NO 17,6 C 22,9 C 0,0 km/h
28.07.2012 01:00 21,2 C 75 % 1008,1 hPa 0,0 l/m 0,0 km/h NO 16,6 C 21,2 C 0,0 km/h
28.07.2012 02:00 20,5 C 78 % 1008,2 hPa 0,0 l/m 0,0 km/h N 16,5 C 20,5 C 0,0 km/h
28.07.2012 03:00 21,2 C 75 % 1008,0 hPa 0,0 l/m 0,0 km/h SO 16,6 C 21,2 C 0,0 km/h
28.07.2012 04:00 20,2 C 78 % 1007,6 hPa 0,0 l/m 0,0 km/h W 16,2 C 20,2 C 0,0 km/h
28.07.2012 05:00 19,6 C 82 % 1009,8 hPa 0,4 l/m 24,6 km/h O 16,4 C 14,9 C 13,7 km/h
28.07.2012 06:00 19,1 C 82 % 1010,1 hPa 1,4 l/m 0,0 km/h N-NO 16,0 C 19,1 C 0,0 km/h
28.07.2012 07:00 19,1 C 80 % 1009,4 hPa 0,4 l/m 0,0 km/h SO 15,6 C 19,1 C 0,0 km/h
28.07.2012 08:00 19,9 C 78 % 1009,6 hPa 0,0 l/m 0,0 km/h S-SW 15,9 C 19,9 C 0,0 km/h
28.07.2012 09:00 23,6 C 74 % 1009,3 hPa 0,0 l/m 9,1 km/h S-SW 18,7 C 22,8 C 5,0 km/h
28.07.2012 10:00 25,3 C 67 % 1008,9 hPa 0,0 l/m 9,7 km/h NW 18,7 C 24,6 C 5,4 km/h
28.07.2012 11:00 24,9 C 67 % 1009,3 hPa 0,0 l/m 0,6 km/h W 18,3 C 24,9 C 0,4 km/h
28.07.2012 12:00 25,8 C 67 % 1009,6 hPa 0,0 l/m 0,0 km/h W-SW 19,2 C 25,8 C 0,0 km/h
28.07.2012 13:00 27,6 C 59 % 1009,6 hPa 0,0 l/m 13,6 km/h SW 18,8 C 26,6 C 7,6 km/h
28.07.2012 14:00 27,7 C 56 % 1009,3 hPa 0,0 l/m 16,2 km/h W 18,1 C 26,5 C 9,0 km/h
28.07.2012 15:00 28,6 C 52 % 1009,2 hPa 0,0 l/m 13,0 km/h O 17,8 C 27,8 C 7,2 km/h
28.07.2012 16:00 28,6 C 68 % 1009,2 hPa 0,7 l/m 0,0 km/h SO 22,1 C 28,6 C 0,0 km/h
28.07.2012 17:00 31,3 C 54 % 1008,8 hPa 0,0 l/m 0,0 km/h N-NO 20,9 C 31,3 C 0,0 km/h
28.07.2012 18:00 33,8 C 41 % 1008,6 hPa 0,0 l/m 5,8 km/h O 18,7 C 33,8 C 3,2 km/h
28.07.2012 19:00 31,0 C 47 % 1008,5 hPa 0,0 l/m 0,0 km/h O 18,3 C 31,0 C 0,0 km/h
28.07.2012 20:00 24,9 C 69 % 1008,6 hPa 0,0 l/m 0,0 km/h SO 18,8 C 24,9 C 0,0 km/h
28.07.2012 21:00 21,7 C 78 % 1008,6 hPa 0,0 l/m 0,0 km/h W-NW 17,7 C 21,7 C 0,0 km/h
28.07.2012 22:00 20,4 C 77 % 1009,7 hPa 0,0 l/m 0,0 km/h NO 16,2 C 20,4 C 0,0 km/h
28.07.2012 23:00 19,4 C 81 % 1009,8 hPa 0,0 l/m 0,0 km/h SO 16,1 C 19,4 C 0,0 km/h
29.07.2012 00:00 18,3 C 82 % 1010,0 hPa 2,1 l/m 0,0 km/h SO 15,2 C 18,3 C 0,0 km/h
29.07.2012 01:00 17,9 C 80 % 1009,7 hPa 0,0 l/m 2,6 km/h O 14,4 C 17,9 C 1,4 km/h
29.07.2012 02:00 17,9 C 78 % 1009,3 hPa 1,1 l/m 0,0 km/h S-SO 14,0 C 17,9 C 0,0 km/h
29.07.2012 03:00 18,2 C 76 % 1009,7 hPa 0,0 l/m 0,0 km/h W-NW 13,9 C 18,2 C 0,0 km/h
29.07.2012 04:00 18,4 C 78 % 1009,6 hPa 0,0 l/m 0,0 km/h S 14,5 C 18,4 C 0,0 km/h
29.07.2012 05:00 18,1 C 77 % 1010,0 hPa 0,0 l/m 0,0 km/h W 14,0 C 18,1 C 0,0 km/h
29.07.2012 06:00 17,9 C 75 % 1010,3 hPa 1,8 l/m 6,5 km/h W-SW 13,4 C 17,9 C 3,6 km/h
29.07.2012 07:00 17,9 C 77 % 1010,4 hPa 0,0 l/m 14,3 km/h W 13,8 C 14,9 C 7,9 km/h
29.07.2012 08:00 18,1 C 76 % 1011,3 hPa 0,7 l/m 2,6 km/h SW 13,8 C 18,1 C 1,4 km/h
29.07.2012 09:00 19,3 C 83 % 1012,0 hPa 0,0 l/m 25,3 km/h NO 16,3 C 14,4 C 14,0 km/h
29.07.2012 10:00 18,1 C 82 % 1013,3 hPa 0,0 l/m 8,4 km/h N-NO 15,0 C 17,2 C 4,7 km/h
29.07.2012 11:00 18,2 C 78 % 1013,9 hPa 0,0 l/m 0,0 km/h S-SO 14,3 C 18,2 C 0,0 km/h
29.07.2012 12:00 20,6 C 72 % 1014,1 hPa 0,0 l/m 9,1 km/h NO 15,4 C 19,6 C 5,0 km/h
29.07.2012 13:00 23,0 C 58 % 1014,3 hPa 0,0 l/m 0,0 km/h W 14,3 C 23,0 C 0,0 km/h
29.07.2012 14:00 23,6 C 54 % 1014,3 hPa 0,0 l/m 0,0 km/h W 13,7 C 23,6 C 0,0 km/h
29.07.2012 15:00 22,9 C 53 % 1014,2 hPa 0,0 l/m 0,0 km/h N-NO 12,8 C 22,9 C 0,0 km/h
29.07.2012 16:00 22,5 C 55 % 1014,7 hPa 0,0 l/m 0,0 km/h N-NO 13,0 C 22,5 C 0,0 km/h
29.07.2012 17:00 26,5 C 45 % 1014,5 hPa 0,0 l/m 0,0 km/h W 13,6 C 26,5 C 0,0 km/h
29.07.2012 18:00 23,2 C 50 % 1014,4 hPa 0,0 l/m 0,0 km/h O 12,2 C 23,2 C 0,0 km/h
29.07.2012 19:00 20,6 C 65 % 1014,6 hPa 0,0 l/m 0,0 km/h O-SO 13,8 C 20,6 C 0,0 km/h
29.07.2012 20:00 18,6 C 71 % 1015,1 hPa 0,0 l/m 0,0 km/h SO 13,2 C 18,6 C 0,0 km/h
29.07.2012 21:00 15,4 C 79 % 1015,4 hPa 0,0 l/m 0,0 km/h SO 11,8 C 15,4 C 0,0 km/h
29.07.2012 22:00 14,4 C 82 % 1015,8 hPa 0,0 l/m 0,0 km/h O-NO 11,4 C 14,4 C 0,0 km/h
29.07.2012 23:00 13,5 C 83 % 1016,1 hPa 0,0 l/m 0,0 km/h O-SO 10,7 C 13,5 C 0,0 km/h
Min-Datum _ 23.07.12 25.07.12 27.07.12 - 23.07.12 - 23.07.12 23.07.12 23.07.12
_ Min-Zeit 06:19 18:19 19:19 - 00:19 - 06:19 05:19 00:19
Minimum _ 7,9 C 24 % 1006,8 hPa - 0,0 km/h - 5,2 C 0,2 C 0,0 km/h
Max-Datum _ 27.07.12 23.07.12 23.07.12 29.07.12 24.07.12 - 27.07.12 27.07.12 24.07.12
_ Max-Zeit 17:19 05:19 00:19 00:19 16:19 - 19:19 17:19 16:19
Maximum _ 43,6 C 84 % 1024,1 hPa 2,1 l/m 25,3 km/h
NW
- 22,6 C 43,6 C 14,0 km/h
NW
Durchschnitt _ 23,7 C 62 % 1013,5 hPa #8,5 l/m 2,7 km/h SO 14,9 C 23,5 C 1,5 km/h
www.sexauwetter.de